createdAt,value
2018-04-27T00:00:55.722Z,1.23
2018-04-27T00:05:58.673Z,1.70
2018-04-27T00:11:02.133Z,1.83
2018-04-27T00:16:04.957Z,1.30
2018-04-27T00:21:07.880Z,1.27
2018-04-27T00:26:11.210Z,1.97
2018-04-27T00:31:14.612Z,1.20
2018-04-27T00:36:17.393Z,1.30
2018-04-27T00:41:21.963Z,1.37
2018-04-27T00:46:25.822Z,1.70
2018-04-27T00:51:28.390Z,1.23
2018-04-27T00:56:31.344Z,1.50
2018-04-27T01:01:34.470Z,1.67
2018-04-27T01:06:37.287Z,1.30
2018-04-27T01:11:40.286Z,1.50
2018-04-27T01:16:43.228Z,1.30
2018-04-27T01:21:46.249Z,1.60
2018-04-27T01:26:49.663Z,0.93
2018-04-27T01:31:52.411Z,1.57
2018-04-27T01:36:56.698Z,1.00
2018-04-27T01:42:00.336Z,1.20
2018-04-27T01:47:03.865Z,1.53
2018-04-27T01:52:08.809Z,0.90
2018-04-27T01:57:11.504Z,1.67
2018-04-27T02:02:14.362Z,1.10
2018-04-27T02:07:16.895Z,1.00
2018-04-27T02:12:19.404Z,1.20
2018-04-27T02:17:22.828Z,1.20
2018-04-27T02:22:27.059Z,1.10
2018-04-27T02:27:29.901Z,1.13
2018-04-27T02:32:32.635Z,0.87
2018-04-27T02:37:35.721Z,1.20
2018-04-27T02:42:38.496Z,1.30
2018-04-27T02:47:42.041Z,1.63
2018-04-27T02:52:44.593Z,0.90
2018-04-27T02:57:47.110Z,1.30
2018-04-27T03:02:50.524Z,1.30
2018-04-27T03:07:54.149Z,1.40
2018-04-27T03:12:58.525Z,2.43
2018-04-27T03:18:01.132Z,1.13
2018-04-27T03:23:03.926Z,1.27
2018-04-27T03:28:06.713Z,2.03
2018-04-27T03:33:10.137Z,1.30
2018-04-27T03:38:13.123Z,1.33
2018-04-27T03:43:16.391Z,1.70
2018-04-27T03:48:19.282Z,1.30
2018-04-27T03:53:22.353Z,1.53
2018-04-27T03:58:25.149Z,1.40
2018-04-27T04:03:44.903Z,1.57
2018-04-27T04:08:47.447Z,1.20
2018-04-27T04:13:50.420Z,1.37
2018-04-27T04:18:53.308Z,1.20
2018-04-27T04:23:56.515Z,1.30
2018-04-27T04:29:00.228Z,1.33
2018-04-27T04:34:02.801Z,1.40
2018-04-27T04:39:05.501Z,1.70
2018-04-27T04:44:08.012Z,2.33
2018-04-27T04:49:11.687Z,1.90
2018-04-27T04:54:15.080Z,1.83
2018-04-27T04:59:17.685Z,1.60
2018-04-27T05:04:21.721Z,1.53
2018-04-27T05:09:25.838Z,1.47
2018-04-27T05:14:28.733Z,1.67
2018-04-27T05:19:31.264Z,2.30
2018-04-27T05:24:33.997Z,1.57
2018-04-27T05:29:37.377Z,2.17
2018-04-27T05:34:40.308Z,2.20
2018-04-27T05:39:43.087Z,1.80
2018-04-27T05:44:45.994Z,2.60
2018-04-27T05:49:49.669Z,1.77
2018-04-27T05:54:52.356Z,1.97
2018-04-27T05:59:54.880Z,2.87
2018-04-27T06:04:58.155Z,4.63
2018-04-27T06:10:03.632Z,2.40
2018-04-27T06:15:07.013Z,2.50
2018-04-27T06:25:17.825Z,2.87
2018-04-27T06:30:22.228Z,3.27
2018-04-27T06:35:25.487Z,2.80
2018-04-27T06:40:29.263Z,2.70
2018-04-27T06:45:32.890Z,2.87
2018-04-27T06:50:37.048Z,3.03
2018-04-27T06:55:39.880Z,3.30
2018-04-27T07:00:43.480Z,3.60
2018-04-27T07:05:46.033Z,3.77
2018-04-27T07:10:48.915Z,3.63
2018-04-27T07:15:51.732Z,3.40
2018-04-27T07:20:54.763Z,3.23
2018-04-27T07:25:58.382Z,3.33
2018-04-27T07:31:00.912Z,3.57
2018-04-27T07:36:03.828Z,3.53
2018-04-27T07:41:06.689Z,3.83
2018-04-27T07:46:10.085Z,3.43
2018-04-27T07:56:20.098Z,3.60
2018-04-27T08:01:23.269Z,2.70
2018-04-27T08:06:26.066Z,3.10
2018-04-27T08:11:30.301Z,3.13
2018-04-27T08:16:35.687Z,3.17
2018-04-27T08:21:40.089Z,3.13
2018-04-27T08:26:44.223Z,2.97
2018-04-27T08:31:49.493Z,2.90
2018-04-27T08:36:55.555Z,2.63
2018-04-27T08:41:58.246Z,2.77
2018-04-27T08:47:01.179Z,1.90
2018-04-27T08:52:03.842Z,2.33
2018-04-27T08:57:06.558Z,2.43
2018-04-27T09:02:09.958Z,1.77
2018-04-27T09:07:13.306Z,2.50
2018-04-27T09:12:17.032Z,1.53
2018-04-27T09:17:20.537Z,1.73
2018-04-27T09:22:25.215Z,1.50
2018-04-27T09:27:28.171Z,1.60
2018-04-27T09:37:37.995Z,3.57
2018-04-27T09:42:41.065Z,1.77
2018-04-27T09:47:44.615Z,1.97
2018-04-27T09:52:48.479Z,1.63
2018-04-27T09:57:51.487Z,2.10
2018-04-27T10:02:55.019Z,1.73
2018-04-27T10:07:57.879Z,1.73
2018-04-27T10:13:00.890Z,1.57
2018-04-27T10:18:04.474Z,1.63
2018-04-27T10:23:06.992Z,1.80
2018-04-27T10:28:09.957Z,1.83
2018-04-27T10:33:15.126Z,2.07
2018-04-27T10:38:18.034Z,1.80
2018-04-27T10:43:22.457Z,1.50
2018-04-27T10:48:25.610Z,1.43
2018-04-27T10:53:29.122Z,1.27
2018-04-27T10:58:33.607Z,1.70
2018-04-27T11:03:37.008Z,1.57
2018-04-27T11:08:40.904Z,2.00
2018-04-27T11:13:46.213Z,1.83
2018-04-27T11:18:54.100Z,1.30
2018-04-27T11:29:05.957Z,1.53
2018-04-27T11:34:09.221Z,1.50
2018-04-27T11:39:12.225Z,1.00
2018-04-27T11:44:14.955Z,1.90
2018-04-27T11:49:17.486Z,1.77
2018-04-27T11:54:20.554Z,2.00
2018-04-27T11:59:24.369Z,1.63
2018-04-27T12:04:27.073Z,1.40
2018-04-27T12:09:30.538Z,2.00
2018-04-27T12:14:33.543Z,1.30
2018-04-27T12:19:36.917Z,2.10
2018-04-27T12:24:39.441Z,1.80
2018-04-27T12:29:43.051Z,1.50
2018-04-27T12:34:46.415Z,2.17
2018-04-27T12:39:48.958Z,1.67
2018-04-27T12:44:52.937Z,1.40
2018-04-27T12:49:55.523Z,1.87
2018-04-27T12:54:58.150Z,1.40
2018-04-27T13:00:00.728Z,2.10
2018-04-27T13:05:08.094Z,1.50
2018-04-27T13:10:12.556Z,1.47
2018-04-27T13:15:15.104Z,1.67
2018-04-27T13:20:17.971Z,1.50
2018-04-27T13:25:21.122Z,1.90
2018-04-27T13:30:23.704Z,1.33
2018-04-27T13:35:26.847Z,1.30
2018-04-27T13:40:29.416Z,1.60
2018-04-27T13:45:32.824Z,1.27
2018-04-27T13:50:35.372Z,1.40
2018-04-27T13:55:38.607Z,1.00
2018-04-27T14:00:41.299Z,1.70
2018-04-27T14:05:44.715Z,0.93
2018-04-27T14:10:49.311Z,1.43
2018-04-27T14:15:52.478Z,0.90
2018-04-27T14:20:56.046Z,1.17
2018-04-27T14:25:58.648Z,1.30
2018-04-27T14:36:10.769Z,1.30
2018-04-27T14:41:13.734Z,1.27
2018-04-27T14:46:17.299Z,1.10
2018-04-27T14:51:22.059Z,1.10
2018-04-27T14:56:25.674Z,1.00
2018-04-27T15:01:29.649Z,1.10
2018-04-27T15:06:35.316Z,1.20
2018-04-27T15:11:37.877Z,0.80
2018-04-27T15:16:40.582Z,1.50
2018-04-27T15:21:46.947Z,1.27
2018-04-27T15:26:49.757Z,1.20
2018-04-27T15:31:54.400Z,0.90
2018-04-27T15:36:57.189Z,1.20
2018-04-27T15:41:59.902Z,1.17
2018-04-27T15:47:02.797Z,1.43
2018-04-27T15:52:05.655Z,0.90
2018-04-27T15:57:08.563Z,0.87
2018-04-27T16:02:11.778Z,1.00
2018-04-27T16:07:16.760Z,1.10
2018-04-27T16:12:19.344Z,0.97
2018-04-27T16:17:22.922Z,1.00
2018-04-27T16:22:28.108Z,6.83
2018-04-27T16:27:31.576Z,6.17
2018-04-27T16:32:34.146Z,4.33
2018-04-27T16:37:36.745Z,2.47
2018-04-27T16:42:42.711Z,1.60
2018-04-27T16:52:53.230Z,1.37
2018-04-27T16:57:58.171Z,1.10
2018-04-27T17:03:01.890Z,0.80
2018-04-27T17:08:05.011Z,0.97
2018-04-27T17:18:15.172Z,1.20
2018-04-27T17:23:20.062Z,1.27
2018-04-27T17:28:26.497Z,1.10
2018-04-27T17:33:32.551Z,1.40
2018-04-27T17:38:37.848Z,1.40
2018-04-27T17:43:41.885Z,1.10
2018-04-27T17:48:44.445Z,1.10
2018-04-27T17:53:48.899Z,1.20
2018-04-27T17:58:51.813Z,1.30
2018-04-27T18:03:55.608Z,1.60
2018-04-27T18:09:02.112Z,1.57
2018-04-27T18:14:05.262Z,1.20
2018-04-27T18:19:13.185Z,1.90
2018-04-27T18:24:16.145Z,1.30
2018-04-27T18:29:19.143Z,1.60
2018-04-27T18:34:21.998Z,1.43
2018-04-27T18:39:25.037Z,1.83
2018-04-27T18:44:28.078Z,1.60
2018-04-27T18:49:30.708Z,2.40
2018-04-27T18:54:35.103Z,1.50
2018-04-27T18:59:53.326Z,1.30
2018-04-27T19:04:57.812Z,2.10
2018-04-27T19:10:00.775Z,1.53
2018-04-27T19:15:03.527Z,1.63
2018-04-27T19:25:14.669Z,2.63
2018-04-27T19:30:20.955Z,2.40
2018-04-27T19:35:26.110Z,2.40
2018-04-27T19:40:29.204Z,2.53
2018-04-27T19:50:39.273Z,2.43
2018-04-27T20:00:49.991Z,1.83
2018-04-27T20:05:54.524Z,2.10
2018-04-27T20:11:00.163Z,1.57
2018-04-27T20:16:03.774Z,1.87
2018-04-27T20:21:08.223Z,1.40
2018-04-27T20:26:15.300Z,2.20
2018-04-27T20:31:20.041Z,2.27
2018-04-27T20:36:24.392Z,2.77
2018-04-27T20:41:29.473Z,3.20
2018-04-27T20:46:32.088Z,2.17
2018-04-27T20:51:36.784Z,2.00
2018-04-27T21:01:52.170Z,2.20
2018-04-27T21:06:57.381Z,1.90
2018-04-27T21:12:01.784Z,2.33
2018-04-27T21:17:04.943Z,2.33
2018-04-27T21:22:08.532Z,3.43
2018-04-27T21:27:12.063Z,3.00
2018-04-27T21:32:16.253Z,2.20
2018-04-27T21:42:27.216Z,2.43
2018-04-27T21:47:35.678Z,3.10
2018-04-27T21:52:50.773Z,3.00
2018-04-27T21:57:58.520Z,2.13
2018-04-27T22:08:45.919Z,2.67
2018-04-27T22:13:48.874Z,2.60
2018-04-27T22:24:05.154Z,3.50
2018-04-27T22:34:28.677Z,3.03
2018-04-27T22:39:51.528Z,3.30
2018-04-27T22:45:01.844Z,3.20
2018-04-27T22:50:06.472Z,2.53
2018-04-27T22:55:12.748Z,2.80
2018-04-27T23:00:18.713Z,3.27
2018-04-27T23:05:35.367Z,3.50
2018-04-27T23:15:52.884Z,2.47
2018-04-27T23:20:56.356Z,2.20
2018-04-27T23:25:58.948Z,2.90
2018-04-27T23:31:06.499Z,3.63
2018-04-27T23:36:09.033Z,3.00
2018-04-27T23:41:11.675Z,2.60
2018-04-27T23:46:17.607Z,2.70
2018-04-27T23:51:21.680Z,3.60
2018-04-27T23:56:30.108Z,3.10
